RYR9009 LIME-EGPH
Flight info
| Callsign | RYR9009 |
|---|---|
| Flight time | N/A |
| Altitude | 38000 |
| Route | ARLES DCT PUNSA DCT IBODI DCT GOTED DCT TRO DCT CLM DCT KOPOR DCT VESAN DCT RATUK DCT SOVAT L613 LEHOC DCT INPIP |
| Aircraft | B738/M-SDE3FGILRWY/SB1 |
Departure
| Time | N/A |
|---|---|
| Airport | Il Caravaggio International Airport (LIME) |
Arrival
| Time | 2026-05-07 10:22 |
|---|---|
| Airport | Edinburgh Airport (EGPH) |
| Time | Latitude | Longitude | Altitude | Speed | Heading |
|---|---|---|---|---|---|
| 2026-05-07 10:10 | 55.38648 | -3.19158 | 15830 ft | 397 kts | 3° |
| 2026-05-07 10:10 | 55.41380 | -3.18683 | 14972 ft | 394 kts | 3° |
| 2026-05-07 10:10 | 55.44097 | -3.18228 | 14131 ft | 391 kts | 3° |
| 2026-05-07 10:11 | 55.46795 | -3.17791 | 13278 ft | 387 kts | 3° |
| 2026-05-07 10:11 | 55.49465 | -3.17367 | 12463 ft | 383 kts | 3° |
| 2026-05-07 10:11 | 55.52098 | -3.16916 | 11655 ft | 379 kts | 6° |
| 2026-05-07 10:11 | 55.54695 | -3.16169 | 10834 ft | 376 kts | 8° |
| 2026-05-07 10:12 | 55.57244 | -3.15337 | 10350 ft | 366 kts | 9° |
| 2026-05-07 10:12 | 55.59673 | -3.14524 | 10213 ft | 346 kts | 9° |
| 2026-05-07 10:12 | 55.61977 | -3.13739 | 10093 ft | 328 kts | 9° |
| 2026-05-07 10:12 | 55.64134 | -3.13000 | 9985 ft | 313 kts | 9° |
| 2026-05-07 10:13 | 55.66221 | -3.12277 | 9893 ft | 299 kts | 9° |
| 2026-05-07 10:13 | 55.68235 | -3.11576 | 9621 ft | 292 kts | 9° |
| 2026-05-07 10:13 | 55.70222 | -3.10886 | 9078 ft | 294 kts | 9° |
| 2026-05-07 10:13 | 55.72252 | -3.10177 | 8531 ft | 298 kts | 9° |
| 2026-05-07 10:14 | 55.74278 | -3.09466 | 8157 ft | 294 kts | 9° |
| 2026-05-07 10:14 | 55.76270 | -3.08759 | 7795 ft | 291 kts | 9° |
| 2026-05-07 10:14 | 55.78249 | -3.08053 | 7386 ft | 288 kts | 9° |
| 2026-05-07 10:14 | 55.80203 | -3.07350 | 6975 ft | 286 kts | 9° |
| 2026-05-07 10:15 | 55.82144 | -3.06648 | 6572 ft | 283 kts | 9° |
| 2026-05-07 10:15 | 55.84065 | -3.05951 | 6150 ft | 281 kts | 9° |
| 2026-05-07 10:15 | 55.85945 | -3.05266 | 5702 ft | 280 kts | 9° |
| 2026-05-07 10:15 | 55.87848 | -3.04572 | 5274 ft | 278 kts | 9° |
| 2026-05-07 10:16 | 55.89737 | -3.03883 | 4833 ft | 277 kts | 9° |
| 2026-05-07 10:16 | 55.91604 | -3.03203 | 4567 ft | 270 kts | 9° |
| 2026-05-07 10:16 | 55.93419 | -3.02662 | 4388 ft | 258 kts | 358° |
| 2026-05-07 10:16 | 55.95124 | -3.03168 | 4250 ft | 242 kts | 341° |
| 2026-05-07 10:17 | 55.96718 | -3.03998 | 4012 ft | 237 kts | 340° |
| 2026-05-07 10:17 | 55.98286 | -3.04847 | 3774 ft | 235 kts | 340° |
| 2026-05-07 10:17 | 55.99811 | -3.05687 | 3600 ft | 227 kts | 339° |
| 2026-05-07 10:17 | 56.01299 | -3.06508 | 3398 ft | 215 kts | 339° |
| 2026-05-07 10:18 | 56.02624 | -3.07514 | 3206 ft | 200 kts | 315° |
| 2026-05-07 10:18 | 56.03207 | -3.09469 | 3057 ft | 173 kts | 265° |
| 2026-05-07 10:18 | 56.02974 | -3.11465 | 3050 ft | 166 kts | 253° |
| 2026-05-07 10:18 | 56.02722 | -3.13512 | 2993 ft | 168 kts | 248° |
| 2026-05-07 10:19 | 56.02276 | -3.15418 | 2809 ft | 165 kts | 243° |
| 2026-05-07 10:19 | 56.01773 | -3.17233 | 2599 ft | 161 kts | 239° |
| 2026-05-07 10:19 | 56.01222 | -3.18942 | 2395 ft | 158 kts | 236° |
| 2026-05-07 10:19 | 56.00654 | -3.20625 | 2176 ft | 158 kts | 235° |
| 2026-05-07 10:20 | 56.00081 | -3.22307 | 1963 ft | 159 kts | 235° |
| 2026-05-07 10:20 | 55.99501 | -3.24006 | 1754 ft | 160 kts | 236° |
| 2026-05-07 10:20 | 55.98926 | -3.25696 | 1513 ft | 157 kts | 235° |
| 2026-05-07 10:20 | 55.98377 | -3.27311 | 1318 ft | 146 kts | 234° |
| 2026-05-07 10:21 | 55.97862 | -3.28824 | 1109 ft | 142 kts | 234° |
| 2026-05-07 10:21 | 55.97362 | -3.30294 | 916 ft | 136 kts | 235° |
| 2026-05-07 10:21 | 55.96876 | -3.31714 | 704 ft | 137 kts | 237° |
| 2026-05-07 10:21 | 55.96367 | -3.33162 | 521 ft | 139 kts | 239° |
| 2026-05-07 10:22 | 55.95883 | -3.34677 | 303 ft | 141 kts | 236° |
| 2026-05-07 10:22 | 55.95378 | -3.36145 | 118 ft | 137 kts | 235° |
| 2026-05-07 10:22 | 55.94958 | -3.37373 | 110 ft | 83 kts | 238° |
| 2026-05-07 10:22 | 55.94761 | -3.37952 | 115 ft | 30 kts | 238° |
| 2026-05-07 10:23 | 55.94679 | -3.38050 | 112 ft | 12 kts | 154° |
| 2026-05-07 10:23 | 55.94611 | -3.37971 | 114 ft | 11 kts | 148° |
| 2026-05-07 10:23 | 55.94591 | -3.37887 | 114 ft | 8 kts | 72° |
| 2026-05-07 10:23 | 55.94620 | -3.37798 | 115 ft | 9 kts | 59° |
| 2026-05-07 10:24 | 55.94654 | -3.37697 | 114 ft | 10 kts | 59° |
| 2026-05-07 10:24 | 55.94688 | -3.37598 | 114 ft | 9 kts | 59° |
| 2026-05-07 10:24 | 55.94723 | -3.37493 | 115 ft | 11 kts | 59° |
| 2026-05-07 10:24 | 55.94771 | -3.37353 | 113 ft | 15 kts | 59° |
| 2026-05-07 10:25 | 55.94831 | -3.37175 | 115 ft | 18 kts | 59° |
| 2026-05-07 10:25 | 55.94902 | -3.36964 | 115 ft | 21 kts | 59° |
| 2026-05-07 10:25 | 55.94982 | -3.36727 | 114 ft | 22 kts | 58° |
| 2026-05-07 10:25 | 55.95064 | -3.36493 | 112 ft | 22 kts | 59° |
| 2026-05-07 10:26 | 55.95139 | -3.36267 | 114 ft | 14 kts | 65° |
| 2026-05-07 10:26 | 55.95119 | -3.36137 | 114 ft | 11 kts | 109° |
| 2026-05-07 10:26 | 55.95102 | -3.36047 | 115 ft | 6 kts | 108° |
| 2026-05-07 10:26 | 55.95085 | -3.35998 | 114 ft | 3 kts | 162° |
| 2026-05-07 10:27 | 55.95069 | -3.36016 | 115 ft | 3 kts | 226° |
| 2026-05-07 10:27 | 55.95056 | -3.36044 | 113 ft | 3 kts | 232° |
| 2026-05-07 10:27 | 55.95044 | -3.36072 | 114 ft | 3 kts | 233° |
| 2026-05-07 10:27 | 55.95038 | -3.36086 | 113 ft | 0 kts | 233° |